TFM - Tactical Decision Aid
ID: Runway Winds: CIG/VIS Threshold:

KABE - Allentown/Lehigh Val, PA, US

Updated at: 1829 UTC 26 Oct 2021
Latest TAF at: 1741 UTC 26 Oct 2021

TAF Board

Time1751Z 26/19Z 26/20Z 26/21Z 26/22Z 26/23Z 27/00Z 27/01Z 27/02Z 27/03Z 27/04Z 27/05Z 27/06Z 27/07Z>>
Type OBS PRVL PRVL PRVL PRVL PRVL PRVL PRVL PRVL PRVL PRVL PRVL PRVL PRVL
VIS 10 >6 >6 >6 >6 >6 4 4 4 4 4 4 5 5
CIG 36 30 30 30 30 30 15 15 15 15 15 15 20 20
Cover OVC BKN BKN BKN BKN BKN OVC OVC OVC OVC OVC OVC OVC OVC
FltCat VFR MVFR MVFR MVFR MVFR MVFR MVFR MVFR MVFR MVFR MVFR MVFR MVFR MVFR
WX -- -RA -RA -RA -RA -RA -RA -RA -RA -RA -RA -RA BR BR
WDir 270 330 330 330 330 330 10 10 10 10 10 10 360 360
WSpd 6 12 12 12 12 12 14 14 14 14 14 14 14 14
WGst -- 22 22 22 22 22 22 22 22 22 22 22 18 18

TDA Impact Legend

  None Marginal Slight Moderate High
Visibility (sm) >5 3≤X≤5 2≤X<3 0.5≤X<2 <0.5
Ceiling (100 ft) >30 10≤X≤30 6≤X<10 2≤X<6 <2
Wind Speed (kt) <15 15≤X<25 25≤X<30 ≥30
Wind Gust (kt) <15 15≤X<25 25≤X<35 ≥35
Weather No Wx Reported VCTS -TS,-FZRA TS,FZRA +TS,+FZRA
TAF
KABE 261741Z 2618/2718 30010KT P6SM -RA SCT030 OVC050
  FM261900 33012G22KT P6SM -RA BKN030
  FM270000 01014G22KT 4SM -RA OVC015
  FM270600 36014G18KT 5SM BR OVC020
  FM271000 34015KT P6SM BKN050
  FM271700 35013KT 6SM BR BKN110


METAR
KABE 261751Z 27006KT 10SM FEW020 BKN036 OVC046 16/13 A2936 RMK AO2 RAE34 SLP941 P0001 60023 T01610128 10161 20133 56024
KABE 261706Z 30008KT 10SM -RA SCT028 BKN036 OVC050 16/13 A2937 RMK AO2 P0001 T01560128
KABE 261651Z 30009KT 10SM -RA BKN028 OVC050 15/12 A2938 RMK AO2 SLP948 P0000 T01500122
KABE 261614Z 30008KT 10SM -RA BKN028 BKN034 OVC075 16/13 A2939 RMK AO2 P0000 T01560133
KABE 261551Z 29008KT 10SM -RA BKN034 BKN044 OVC075 16/14 A2940 RMK AO2 SLP955 P0005 T01560139
KABE 261516Z 30005KT 9SM -RA FEW025 OVC032 14/13 A2942 RMK AO2 P0002 T01440128

Radar Display
Forecast Discussion